Time;durP1;ratioP1;P1;durP2;ratioP2;P2;SDS_P1;SDS_P2;PMS_P1;PMS_P2;Temp;Humidity;BMP_temperature;BMP_pressure;BME280_temperature;BME280_humidity;BME280_pressure;Samples;Min_cycle;Max_cycle;Signal;HPM_P1;HPM_P2
2023/04/17 00:04:22;;;;;;;4.63;4.00;;;;;;;19.79;51.42;97063.72;10365059;28;20045;-72
2023/04/17 00:09:42;;;;;;;4.57;3.90;;;;;;;19.78;51.71;97062.16;10364850;28;20041;-72
2023/04/17 00:15:02;;;;;;;5.28;4.15;;;;;;;19.77;51.67;97060.56;10378354;28;20051;-73
2023/04/17 00:20:22;;;;;;;4.35;3.80;;;;;;;19.75;51.67;97054.66;10364673;28;20555;-72
2023/04/17 00:25:42;;;;;;;5.00;3.95;;;;;;;19.75;51.62;97054.66;10378025;28;20041;-72
2023/04/17 00:31:03;;;;;;;3.78;3.35;;;;;;;19.74;51.71;97063.91;10364089;28;20041;-72
2023/04/17 00:36:22;;;;;;;4.18;3.78;;;;;;;19.73;51.66;97071.19;10377156;28;20046;-72
2023/04/17 00:41:41;;;;;;;5.35;4.00;;;;;;;19.72;51.52;97064.22;10363686;28;20406;-73
2023/04/17 00:47:01;;;;;;;4.15;3.75;;;;;;;19.71;51.54;97065.31;10377041;28;20095;-72
2023/04/17 00:52:28;;;;;;;4.88;3.70;;;;;;;19.70;51.54;97068.34;10363390;28;20042;-72
2023/04/17 00:57:48;;;;;;;4.30;3.78;;;;;;;19.69;51.52;97061.31;10352667;28;20061;-72
2023/04/17 01:03:08;;;;;;;4.07;3.35;;;;;;;19.68;51.34;97062.44;10363180;28;20042;-73
2023/04/17 01:08:28;;;;;;;3.90;3.55;;;;;;;19.67;51.52;97055.44;10362623;28;20116;-73
2023/04/17 01:13:49;;;;;;;5.53;3.88;;;;;;;19.66;51.57;97056.53;10348917;28;20093;-74
2023/04/17 01:19:14;;;;;;;4.15;3.50;;;;;;;19.65;51.50;97049.56;10375963;28;20041;-73
2023/04/17 01:24:34;;;;;;;4.05;3.53;;;;;;;19.63;51.45;97049.88;10362048;28;20057;-74
2023/04/17 01:29:53;;;;;;;3.60;3.22;;;;;;;19.63;51.43;97052.59;10361803;28;20050;-74
2023/04/17 01:35:13;;;;;;;4.80;3.58;;;;;;;19.61;51.36;97049.41;10361755;28;20053;-73
2023/04/17 01:40:32;;;;;;;4.80;3.60;;;;;;;19.61;51.28;97059.44;10347746;28;20498;-74
2023/04/17 01:45:52;;;;;;;4.05;3.60;;;;;;;19.59;51.26;97062.44;10389664;28;20042;-74
2023/04/17 01:51:11;;;;;;;3.60;3.25;;;;;;;19.59;51.23;97057.03;10388504;28;20509;-74
2023/04/17 01:56:31;;;;;;;3.75;3.22;;;;;;;19.58;51.09;97062.75;10367395;28;20494;-74
2023/04/17 02:01:51;;;;;;;4.13;3.60;;;;;;;19.58;51.10;97060.03;10360690;28;20486;-74
2023/04/17 02:07:11;;;;;;;3.78;3.30;;;;;;;19.55;51.13;97062.28;10374025;28;20042;-73
2023/04/17 02:12:30;;;;;;;3.72;3.20;;;;;;;19.54;51.05;97070.69;10388452;28;20494;-74
2023/04/17 02:17:50;;;;;;;3.30;3.00;;;;;;;19.55;50.98;97080.41;10373558;28;20498;-74
2023/04/17 02:23:11;;;;;;;3.30;2.97;;;;;;;19.53;50.76;97079.94;10388136;28;20169;-74
2023/04/17 02:28:30;;;;;;;3.35;3.05;;;;;;;19.50;50.89;97084.06;10387934;28;20048;-74
2023/04/17 02:33:49;;;;;;;3.30;3.00;;;;;;;19.50;50.62;97086.78;10387769;28;20065;-74
2023/04/17 02:39:09;;;;;;;3.67;3.13;;;;;;;19.50;50.77;97091.34;10374151;28;20046;-74
2023/04/17 02:44:31;;;;;;;3.75;3.03;;;;;;;19.49;50.67;97084.38;10373105;28;20053;-74
2023/04/17 02:49:52;;;;;;;3.50;3.20;;;;;;;19.48;50.76;97083.59;10372514;28;20044;-74
2023/04/17 02:55:11;;;;;;;3.33;2.97;;;;;;;19.46;50.71;97085.78;10341776;28;20060;-74
2023/04/17 03:00:33;;;;;;;3.10;2.80;;;;;;;19.45;50.44;97086.13;10358751;28;20406;-74
2023/04/17 03:05:53;;;;;;;2.92;2.58;;;;;;;19.44;50.44;97090.72;10358660;28;20042;-74
2023/04/17 03:11:12;;;;;;;3.90;3.00;;;;;;;19.43;50.63;97086.44;10358532;28;20536;-74
2023/04/17 03:16:32;;;;;;;3.40;3.10;;;;;;;19.43;50.59;97082.94;10344875;28;20465;-74
2023/04/17 03:21:54;;;;;;;3.67;2.78;;;;;;;19.42;50.38;97084.03;10358543;28;20049;-74
2023/04/17 03:27:14;;;;;;;3.20;2.70;;;;;;;19.40;50.37;97087.06;10372357;28;20045;-73
2023/04/17 03:32:36;;;;;;;3.03;2.83;;;;;;;19.39;50.33;97090.09;10371873;28;20041;-73
2023/04/17 03:37:56;;;;;;;4.85;2.78;;;;;;;19.38;50.41;97094.69;10344846;28;20045;-73
2023/04/17 03:43:16;;;;;;;2.55;2.35;;;;;;;19.38;50.24;97094.69;10371738;28;20397;-73
2023/04/17 03:48:35;;;;;;;2.88;2.50;;;;;;;19.36;50.11;97102.31;10358172;28;20096;-73
2023/04/17 03:53:55;;;;;;;2.88;2.58;;;;;;;19.36;50.07;97096.91;10357853;28;20041;-74
2023/04/17 03:59:16;;;;;;;2.97;2.67;;;;;;;19.33;50.12;97106.44;10358305;28;20105;-72
2023/04/17 04:04:37;;;;;;;2.65;2.45;;;;;;;19.33;50.16;97109.13;10371336;28;20042;-72
2023/04/17 04:10:03;;;;;;;2.78;2.47;;;;;;;19.32;50.28;97117.56;10371320;28;20042;-72
2023/04/17 04:15:23;;;;;;;3.25;2.63;;;;;;;19.32;50.26;97117.56;10363451;28;20100;-73
2023/04/17 04:20:47;;;;;;;4.00;2.55;;;;;;;19.30;49.94;97122.47;10365099;28;20052;-72
2023/04/17 04:26:12;;;;;;;2.60;2.40;;;;;;;19.31;50.10;97118.69;10364738;28;20049;-72
2023/04/17 04:31:37;;;;;;;2.42;2.22;;;;;;;19.30;50.03;97117.88;10377583;28;20045;-72
2023/04/17 04:36:57;;;;;;;2.85;2.42;;;;;;;19.30;49.98;97115.16;10363813;28;20108;-72
2023/04/17 04:42:30;;;;;;;4.88;2.42;;;;;;;19.32;50.28;97117.56;10352036;28;20046;-73
2023/04/17 04:48:12;;;;;;;2.70;2.15;;;;;;;19.33;50.86;97114.53;10366606;28;20041;-73
2023/04/17 04:53:32;;;;;;;2.78;2.30;;;;;;;19.36;50.91;97121.22;10363570;28;20042;-73
2023/04/17 04:58:52;;;;;;;2.50;2.30;;;;;;;19.37;51.02;97120.13;10349757;28;20050;-72
2023/04/17 05:04:13;;;;;;;4.13;2.40;;;;;;;19.38;51.02;97115.50;10363072;28;20157;-72
2023/04/17 05:09:34;;;;;;;2.50;2.10;;;;;;;19.40;50.70;97126.78;10376412;28;20042;-72
2023/04/17 05:14:54;;;;;;;2.35;2.15;;;;;;;19.41;50.65;97126.47;10362451;28;20046;-72
2023/04/17 05:20:14;;;;;;;2.10;1.90;;;;;;;19.43;50.68;97132.38;10389714;28;20383;-72
2023/04/17 05:25:42;;;;;;;3.03;2.13;;;;;;;19.44;50.44;97133.94;10362789;28;20397;-72
2023/04/17 05:31:02;;;;;;;2.22;2.03;;;;;;;19.48;50.46;97137.63;10344273;28;20041;-72
2023/04/17 05:36:30;;;;;;;1.90;1.80;;;;;;;19.51;50.31;97141.59;10358506;28;20054;-72
2023/04/17 05:41:52;;;;;;;3.40;2.20;;;;;;;19.52;50.35;97143.19;10344924;28;20046;-72
2023/04/17 05:47:11;;;;;;;2.60;1.95;;;;;;;19.53;50.14;97140.16;10374742;28;20049;-72
2023/04/17 05:52:31;;;;;;;2.35;1.95;;;;;;;19.56;50.34;97147.66;10360536;28;20409;-72
2023/04/17 05:57:51;;;;;;;2.30;2.10;;;;;;;19.59;50.16;97143.50;10336706;28;20050;-72
2023/04/17 06:03:11;;;;;;;2.60;2.05;;;;;;;19.64;50.14;97153.38;10360548;28;20044;-72
2023/04/17 06:08:33;;;;;;;2.20;2.00;;;;;;;19.67;50.16;97150.03;10347118;28;20164;-72
2023/04/17 06:13:52;;;;;;;2.25;2.03;;;;;;;19.68;49.98;97152.44;10359841;28;20049;-72
2023/04/17 06:19:13;;;;;;;1.98;1.88;;;;;;;19.73;49.95;97159.63;10359847;28;20046;-72
2023/04/17 06:24:32;;;;;;;2.10;1.90;;;;;;;19.75;49.90;97162.81;10373438;28;20096;-72
2023/04/17 06:29:52;;;;;;;3.15;1.90;;;;;;;19.77;49.82;97165.97;10359499;28;20037;-72
2023/04/17 06:35:12;;;;;;;1.90;1.70;;;;;;;19.81;49.83;97166.16;10372668;28;20081;-72
2023/04/17 06:40:41;;;;;;;2.40;1.80;;;;;;;19.84;49.79;97176.34;10360516;28;20088;-71
2023/04/17 06:46:01;;;;;;;2.00;1.83;;;;;;;19.84;49.45;97182.53;10359145;28;20045;-73
2023/04/17 06:51:27;;;;;;;2.20;2.00;;;;;;;19.88;49.28;97182.72;10346442;28;20041;-73
2023/04/17 06:56:47;;;;;;;2.63;2.03;;;;;;;19.91;49.16;97192.88;10365120;28;20053;-72
2023/04/17 07:02:06;;;;;;;2.00;1.90;;;;;;;19.92;49.17;97186.38;10372369;28;20033;-72
2023/04/17 07:07:26;;;;;;;1.95;1.80;;;;;;;19.95;49.04;97193.81;10358535;28;20563;-71
2023/04/17 07:12:46;;;;;;;2.03;1.80;;;;;;;19.97;48.98;97193.50;10372160;28;20041;-71
2023/04/17 07:18:05;;;;;;;2.30;1.90;;;;;;;20.02;48.79;97204.19;10372026;28;20050;-71
2023/04/17 07:23:25;;;;;;;2.45;1.90;;;;;;;20.04;48.83;97207.38;10344501;28;20061;-72
2023/04/17 07:28:44;;;;;;;2.28;1.80;;;;;;;20.06;48.58;97205.94;10371736;28;20490;-71
2023/04/17 07:34:04;;;;;;;2.15;1.90;;;;;;;20.10;48.48;97206.88;10358120;28;20050;-71
2023/04/17 07:39:27;;;;;;;2.58;2.17;;;;;;;20.10;48.48;97203.41;10358156;28;20109;-71
2023/04/17 07:44:47;;;;;;;2.50;1.90;;;;;;;20.12;48.35;97210.06;10371920;28;20046;-72
2023/04/17 07:50:07;;;;;;;2.38;2.17;;;;;;;20.14;48.33;97215.16;10363704;28;20474;-72
2023/04/17 07:55:27;;;;;;;2.03;1.77;;;;;;;20.15;48.31;97224.88;10375042;28;20054;-72
2023/04/17 08:00:47;;;;;;;2.05;1.85;;;;;;;20.18;48.74;97224.25;10365473;28;20414;-72
2023/04/17 08:06:06;;;;;;;2.00;1.90;;;;;;;20.22;48.53;97227.91;10393593;28;20038;-72
2023/04/17 08:11:27;;;;;;;1.88;1.77;;;;;;;20.23;48.57;97232.22;10365335;28;20100;-73
2023/04/17 08:16:46;;;;;;;2.00;1.80;;;;;;;20.26;48.45;97244.28;10378182;28;20486;-73
2023/04/17 08:22:06;;;;;;;5.72;1.90;;;;;;;20.28;48.49;97245.56;10378415;28;20046;-73
2023/04/17 08:27:26;;;;;;;51.70;33.60;;;;;;;20.30;49.07;97240.63;10377913;28;20088;-72
2023/04/17 08:32:47;;;;;;;21.58;13.00;;;;;;;20.29;45.19;97246.38;10377622;28;20053;-72
2023/04/17 08:38:09;;;;;;;13.57;9.80;;;;;;;20.27;44.27;97245.91;10392332;28;20049;-72
2023/04/17 08:43:29;;;;;;;11.98;8.52;;;;;;;20.16;42.96;97242.69;10350409;28;20505;-72
2023/04/17 08:48:48;;;;;;;8.77;6.80;;;;;;;19.96;42.21;97233.28;10377016;28;20104;-72
2023/04/17 08:54:08;;;;;;;8.30;7.00;;;;;;;19.88;42.05;97231.38;10375260;28;20493;-73
2023/04/17 08:59:29;;;;;;;9.70;6.85;;;;;;;20.09;43.91;97236.94;10363099;28;20057;-73
2023/04/17 09:04:49;;;;;;;7.82;6.80;;;;;;;20.18;44.22;97240.47;10362976;28;20037;-73
2023/04/17 09:10:09;;;;;;;8.88;6.20;;;;;;;20.23;44.41;97240.31;10349409;28;20052;-72
2023/04/17 09:15:29;;;;;;;12.68;6.05;;;;;;;20.27;44.76;97241.28;10362759;28;20053;-73
2023/04/17 09:20:50;;;;;;;8.52;6.00;;;;;;;20.32;45.01;97245.72;10376150;28;20042;-74
2023/04/17 09:26:14;;;;;;;7.05;5.57;;;;;;;20.33;45.21;97241.91;10376004;28;20038;-73
2023/04/17 09:31:36;;;;;;;8.68;5.88;;;;;;;20.34;45.35;97238.09;10376755;28;20085;-73
2023/04/17 09:36:55;;;;;;;6.88;5.40;;;;;;;20.37;45.60;97236.66;10390271;28;20060;-72
2023/04/17 09:42:15;;;;;;;7.22;5.70;;;;;;;20.37;45.76;97232.03;10361378;28;20053;-73
2023/04/17 09:47:34;;;;;;;7.40;5.47;;;;;;;20.40;46.03;97239.50;10374970;28;20041;-72
2023/04/17 09:52:55;;;;;;;7.22;5.18;;;;;;;20.43;46.23;97240.81;10374724;28;20482;-72
2023/04/17 09:58:15;;;;;;;5.78;4.93;;;;;;;20.45;46.39;97239.34;10375405;28;20050;-72
2023/04/17 10:03:34;;;;;;;7.15;5.43;;;;;;;20.47;46.46;97241.75;10360920;28;20049;-72
2023/04/17 10:08:55;;;;;;;6.05;4.95;;;;;;;20.48;46.52;97235.22;10360297;28;20065;-72
2023/04/17 10:14:23;;;;;;;6.07;4.78;;;;;;;20.49;46.75;97232.19;10360683;28;20045;-72
2023/04/17 10:19:43;;;;;;;6.40;4.25;;;;;;;20.50;47.08;97219.44;10373819;28;20049;-72
2023/04/17 10:25:11;;;;;;;8.30;4.53;;;;;;;20.49;47.10;97205.13;10373358;28;20056;-72
2023/04/17 10:30:52;;;;;;;7.43;5.00;;;;;;;20.50;47.24;97208.63;10388113;28;20509;-73
2023/04/17 10:36:37;;;;;;;5.40;4.15;;;;;;;20.51;47.32;97202.09;10373415;28;20408;-73
2023/04/17 10:42:06;;;;;;;5.72;4.28;;;;;;;20.51;47.20;97204.81;10387879;28;20042;-73
2023/04/17 10:47:30;;;;;;;5.20;4.32;;;;;;;20.51;47.42;97202.91;10372661;28;20449;-73
2023/04/17 10:52:50;;;;;;;5.38;4.10;;;;;;;20.52;47.42;97201.78;10372480;28;20046;-72
2023/04/17 10:58:14;;;;;;;8.80;3.88;;;;;;;20.55;47.59;97200.34;10358900;28;20064;-72
2023/04/17 11:03:36;;;;;;;4.75;4.18;;;;;;;20.55;47.48;97200.34;10387230;28;20042;-72
2023/04/17 11:08:56;;;;;;;5.05;4.10;;;;;;;20.54;47.46;97201.44;10372489;28;20042;-72
2023/04/17 11:14:20;;;;;;;4.13;3.72;;;;;;;20.54;47.51;97199.56;10372244;28;20057;-72
2023/04/17 11:19:40;;;;;;;3.47;2.92;;;;;;;20.54;47.61;97204.16;10372248;28;20375;-72
2023/04/17 11:24:59;;;;;;;4.97;3.33;;;;;;;20.55;47.47;97197.63;10366033;28;20042;-72
2023/04/17 11:30:26;;;;;;;3.45;3.10;;;;;;;20.57;47.55;97198.13;10366530;28;20046;-75
2023/04/17 11:35:46;;;;;;;3.95;3.00;;;;;;;20.56;47.62;97196.50;10380804;28;20104;-73
2023/04/17 11:41:07;;;;;;;5.25;3.17;;;;;;;20.55;47.48;97192.22;10379993;28;20046;-74
2023/04/17 11:46:28;;;;;;;2.67;2.05;;;;;;;20.54;47.42;97191.44;10381060;28;20407;-74
2023/04/17 11:51:47;;;;;;;6.07;3.20;;;;;;;20.53;47.60;97191.75;10352525;28;20050;-74
2023/04/17 11:57:11;;;;;;;3.60;2.72;;;;;;;20.54;47.96;97187.91;10370692;28;20062;-74
2023/04/17 12:02:32;;;;;;;2.05;1.75;;;;;;;20.53;47.79;97189.03;10365635;28;20100;-74
2023/04/17 12:08:03;;;;;;;19.52;4.72;;;;;;;20.51;49.15;97191.28;10393652;28;20038;-74
2023/04/17 12:13:23;;;;;;;13.60;4.75;;;;;;;20.51;50.17;97183.16;10378748;28;20045;-74
2023/04/17 12:18:43;;;;;;;13.85;5.05;;;;;;;20.51;50.32;97183.16;10378390;28;20470;-74
2023/04/17 12:24:02;;;;;;;11.85;4.60;;;;;;;20.51;51.26;97188.56;10377866;28;20053;-73
2023/04/17 12:29:22;;;;;;;10.35;4.13;;;;;;;20.51;50.59;97188.56;10378244;28;20049;-74
2023/04/17 12:34:41;;;;;;;6.10;3.33;;;;;;;20.51;50.48;97183.16;10363143;28;20056;-74
2023/04/17 12:40:01;;;;;;;11.57;3.28;;;;;;;20.52;50.56;97176.63;10363930;28;20046;-74
2023/04/17 12:45:20;;;;;;;7.07;3.88;;;;;;;20.52;50.19;97180.13;10377286;28;20042;-74
2023/04/17 12:50:43;;;;;;;3.75;2.92;;;;;;;20.47;43.60;97176.81;10363449;28;20042;-74
2023/04/17 12:56:02;;;;;;;5.05;2.47;;;;;;;20.35;40.11;97159.31;10371700;28;20054;-74
2023/04/17 13:01:24;;;;;;;3.08;2.38;;;;;;;20.30;40.86;97162.16;10376829;28;20505;-74
2023/04/17 13:06:43;;;;;;;2.47;2.13;;;;;;;20.33;43.35;97161.53;10363014;28;20084;-73
2023/04/17 13:12:03;;;;;;;3.28;2.03;;;;;;;20.34;43.95;97160.41;10362652;28;20045;-73
2023/04/17 13:17:23;;;;;;;4.25;2.40;;;;;;;20.37;44.02;97174.44;10391114;28;20049;-73
2023/04/17 13:22:43;;;;;;;3.15;2.55;;;;;;;20.37;44.49;97161.69;10376517;28;20068;-73
2023/04/17 13:28:02;;;;;;;3.45;2.15;;;;;;;20.38;44.79;97162.47;10375664;28;20042;-74
2023/04/17 13:33:22;;;;;;;4.88;2.35;;;;;;;20.38;45.03;97157.84;10390525;28;20049;-73
2023/04/17 13:38:41;;;;;;;4.93;2.63;;;;;;;20.37;43.17;97160.91;10374962;28;20058;-74
2023/04/17 13:44:01;;;;;;;3.38;3.03;;;;;;;20.31;41.54;97169.19;10389689;28;20049;-74
2023/04/17 13:49:20;;;;;;;2.63;2.33;;;;;;;20.24;40.39;97157.25;10375278;28;20042;-73
2023/04/17 13:54:40;;;;;;;3.35;2.50;;;;;;;20.21;39.63;97147.88;10371395;28;20116;-73
2023/04/17 13:59:59;;;;;;;2.75;2.50;;;;;;;20.18;39.58;97140.38;10374465;28;20041;-73
2023/04/17 14:05:19;;;;;;;2.80;2.35;;;;;;;20.19;39.61;97150.09;10374227;28;20064;-73
2023/04/17 14:10:39;;;;;;;3.10;2.60;;;;;;;20.15;39.51;97158.06;10374156;28;20050;-73
2023/04/17 14:15:58;;;;;;;2.28;2.08;;;;;;;20.18;41.29;97177.47;10388911;28;20058;-74
2023/04/17 14:21:20;;;;;;;2.08;1.88;;;;;;;20.17;41.75;97195.59;10373647;28;20053;-74
2023/04/17 14:26:40;;;;;;;2.30;1.85;;;;;;;20.19;42.07;97187.97;10373664;28;20506;-74
2023/04/17 14:32:00;;;;;;;1.83;1.73;;;;;;;20.20;42.30;97203.06;10373349;28;20049;-74
2023/04/17 14:37:20;;;;;;;2.35;2.15;;;;;;;20.21;42.59;97210.09;10359318;28;20049;-74
2023/04/17 14:42:39;;;;;;;2.67;2.40;;;;;;;20.21;42.72;97212.78;10372821;28;20045;-73
2023/04/17 14:47:59;;;;;;;1.98;1.88;;;;;;;20.22;43.11;97217.06;10387458;28;20046;-73
2023/04/17 14:53:19;;;;;;;2.20;2.00;;;;;;;20.23;43.56;97210.56;10345529;28;20386;-73
2023/04/17 14:58:38;;;;;;;3.72;2.05;;;;;;;20.24;44.02;97211.34;10332697;28;20058;-74
2023/04/17 15:03:58;;;;;;;2.17;1.90;;;;;;;20.26;44.50;97217.25;10346484;28;20046;-77
2023/04/17 15:09:17;;;;;;;2.70;1.75;;;;;;;20.25;44.98;97213.75;10332159;28;20113;-75
2023/04/17 15:14:37;;;;;;;2.97;1.80;;;;;;;20.27;45.14;97211.50;10345796;28;20495;-77
2023/04/17 15:19:57;;;;;;;3.85;2.10;;;;;;;20.28;45.39;97221.22;10332478;28;20046;-73
2023/04/17 15:25:18;;;;;;;1.35;1.25;;;;;;;20.29;45.52;97220.09;10346386;28;20038;-75
2023/04/17 15:30:38;;;;;;;1.98;1.77;;;;;;;20.31;45.75;97223.28;10331434;28;20441;-74
2023/04/17 15:35:58;;;;;;;2.60;1.80;;;;;;;20.32;45.86;97222.16;10347294;28;20054;-75
2023/04/17 15:41:18;;;;;;;2.50;1.70;;;;;;;20.33;46.15;97215.66;10331652;28;20043;-74
2023/04/17 15:46:37;;;;;;;2.28;1.63;;;;;;;20.32;46.30;97218.66;10345428;28;20046;-75
2023/04/17 15:51:57;;;;;;;1.75;1.50;;;;;;;20.34;46.50;97214.50;10345273;28;20115;-75
2023/04/17 15:57:17;;;;;;;2.00;1.48;;;;;;;20.35;46.74;97213.41;10362852;28;20064;-73
2023/04/17 16:02:36;;;;;;;1.65;1.42;;;;;;;20.35;46.81;97218.84;10356347;28;20045;-73
2023/04/17 16:07:55;;;;;;;1.80;1.70;;;;;;;20.35;46.62;97218.84;10372958;28;20046;-71
2023/04/17 16:13:15;;;;;;;1.95;1.70;;;;;;;20.35;46.77;97228.88;10392021;28;20045;-71
2023/04/17 16:18:35;;;;;;;1.77;1.67;;;;;;;20.32;46.78;97222.16;10392041;28;20049;-70
2023/04/17 16:23:57;;;;;;;1.65;1.55;;;;;;;20.33;46.96;97221.06;10374019;28;20042;-70
2023/04/17 16:29:16;;;;;;;2.28;1.80;;;;;;;20.33;47.32;97231.09;10374501;28;20049;-70
2023/04/17 16:34:36;;;;;;;2.00;1.80;;;;;;;20.33;47.49;97231.09;10373907;28;20053;-73
2023/04/17 16:39:55;;;;;;;2.17;1.95;;;;;;;20.33;47.74;97231.09;10364871;28;20088;-80
2023/04/17 16:45:15;;;;;;;3.70;1.63;;;;;;;20.32;48.22;97237.59;10351310;28;20057;-79
2023/04/17 16:50:34;;;;;;;1.95;1.83;;;;;;;20.34;48.40;97236.16;10338565;28;20529;-79
2023/04/17 16:55:54;;;;;;;1.63;1.52;;;;;;;20.34;48.80;97238.09;10372181;28;20498;-70
2023/04/17 17:01:13;;;;;;;1.95;1.73;;;;;;;20.33;48.52;97237.28;10376986;28;20053;-70
2023/04/17 17:06:33;;;;;;;3.28;1.60;;;;;;;20.33;48.72;97252.75;10362791;28;20104;-71
2023/04/17 17:11:52;;;;;;;2.15;1.60;;;;;;;20.33;48.68;97253.53;10376603;28;20045;-72
2023/04/17 17:17:12;;;;;;;2.10;1.90;;;;;;;20.33;48.52;97250.03;10362573;28;20096;-73
2023/04/17 17:22:31;;;;;;;2.40;2.10;;;;;;;20.32;48.14;97262.75;10375956;28;20482;-72
2023/04/17 17:27:51;;;;;;;2.38;2.17;;;;;;;20.31;48.45;97258.47;10375956;28;20053;-72
2023/04/17 17:33:10;;;;;;;2.45;2.25;;;;;;;20.30;48.43;97256.84;10375352;28;20104;-72
2023/04/17 17:38:31;;;;;;;2.20;2.00;;;;;;;20.30;48.47;97261.47;10375716;28;20072;-72
2023/04/17 17:43:51;;;;;;;3.67;2.25;;;;;;;20.27;48.44;97273.75;10375945;28;20045;-71
2023/04/17 17:49:10;;;;;;;2.10;2.00;;;;;;;20.27;48.45;97275.66;10375572;28;20042;-71
2023/04/17 17:54:36;;;;;;;4.18;2.20;;;;;;;20.27;48.66;97284.56;10388336;28;20053;-70
2023/04/17 17:59:57;;;;;;;2.63;2.13;;;;;;;20.27;49.21;97283.78;10375079;28;20042;-69
2023/04/17 18:05:16;;;;;;;4.43;2.30;;;;;;;20.27;49.25;97295.38;10374359;28;20046;-69
2023/04/17 18:10:36;;;;;;;2.60;1.90;;;;;;;20.26;49.46;97291.06;10375458;28;20096;-70
2023/04/17 18:15:55;;;;;;;2.20;2.03;;;;;;;20.25;49.54;97289.50;10374089;28;20050;-70
2023/04/17 18:21:14;;;;;;;2.85;2.10;;;;;;;20.25;49.64;97300.31;10374064;28;20053;-70
2023/04/17 18:26:34;;;;;;;2.33;2.03;;;;;;;20.26;50.27;97301.91;10388323;28;20049;-69
2023/04/17 18:31:53;;;;;;;2.20;1.98;;;;;;;20.25;50.08;97300.31;10358875;28;20041;-72
2023/04/17 18:37:12;;;;;;;2.70;2.20;;;;;;;20.26;50.32;97306.53;10359528;28;20050;-71
2023/04/17 18:42:32;;;;;;;7.00;2.45;;;;;;;20.24;50.46;97311.44;10374425;28;20387;-72
2023/04/17 18:47:52;;;;;;;4.75;2.15;;;;;;;20.24;50.75;97312.25;10372620;28;20049;-71
2023/04/17 18:53:12;;;;;;;4.22;2.20;;;;;;;20.22;50.83;97325.28;10372944;28;20038;-72
2023/04/17 18:58:31;;;;;;;6.45;2.20;;;;;;;20.22;50.94;97316.38;10360387;28;20054;-71
2023/04/17 19:03:51;;;;;;;3.90;2.10;;;;;;;20.22;50.89;97328.00;10387410;28;20457;-71
2023/04/17 19:09:11;;;;;;;2.10;1.75;;;;;;;20.22;51.12;97328.00;10387039;28;20042;-71
2023/04/17 19:14:33;;;;;;;5.38;2.28;;;;;;;20.21;51.14;97337.22;10386913;28;20042;-71
2023/04/17 19:19:53;;;;;;;3.55;2.30;;;;;;;20.20;51.22;97332.13;10372734;28;20100;-71
2023/04/17 19:25:12;;;;;;;2.95;2.17;;;;;;;20.19;51.28;97334.06;10372026;28;20046;-71
2023/04/17 19:30:33;;;;;;;2.67;2.10;;;;;;;20.18;51.41;97328.94;10372014;28;20042;-71
2023/04/17 19:35:52;;;;;;;4.85;2.47;;;;;;;20.18;51.23;97337.06;10371971;28;20046;-72
2023/04/17 19:41:17;;;;;;;4.38;2.20;;;;;;;20.17;51.34;97332.75;10371627;28;20411;-71
2023/04/17 19:46:36;;;;;;;6.07;2.38;;;;;;;20.15;51.66;97335.78;10366240;28;20124;-75
2023/04/17 19:51:56;;;;;;;2.78;2.10;;;;;;;20.15;51.40;97331.16;10365849;28;20045;-71
2023/04/17 19:57:16;;;;;;;4.57;2.42;;;;;;;20.15;51.34;97339.28;10370881;28;20065;-72
2023/04/17 20:02:35;;;;;;;4.18;2.28;;;;;;;20.15;51.53;97335.78;10379969;28;20049;-73
2023/04/17 20:07:55;;;;;;;5.53;2.70;;;;;;;20.13;51.40;97338.00;10365840;28;20046;-73
2023/04/17 20:13:15;;;;;;;4.30;2.45;;;;;;;20.11;51.49;97348.31;10379706;28;20041;-73
2023/04/17 20:18:36;;;;;;;6.45;2.40;;;;;;;20.10;51.39;97338.63;10378844;28;20046;-73
2023/04/17 20:23:56;;;;;;;7.57;2.78;;;;;;;20.10;51.64;97330.53;10379245;28;20041;-73
2023/04/17 20:29:16;;;;;;;7.53;3.60;;;;;;;20.09;51.62;97335.13;10364700;28;20391;-73
2023/04/17 20:34:35;;;;;;;8.35;3.47;;;;;;;20.09;51.51;97345.13;10378474;28;20096;-71
2023/04/17 20:39:55;;;;;;;11.85;4.13;;;;;;;20.08;51.39;97336.22;10364027;28;20100;-72
2023/04/17 20:45:14;;;;;;;16.58;4.70;;;;;;;20.08;51.52;97330.03;10392228;28;20406;-72
2023/04/17 20:50:33;;;;;;;12.23;4.00;;;;;;;20.07;51.42;97334.66;10376735;28;20045;-72
2023/04/17 20:55:53;;;;;;;12.38;4.05;;;;;;;20.06;51.34;97334.97;10369323;28;20461;-72
2023/04/17 21:01:12;;;;;;;14.02;4.28;;;;;;;20.05;51.28;97336.06;10376486;28;20398;-72
2023/04/17 21:06:32;;;;;;;13.43;4.07;;;;;;;20.04;51.24;97334.47;10362867;28;20422;-72
2023/04/17 21:11:52;;;;;;;14.48;4.75;;;;;;;20.02;51.28;97336.72;10391152;28;20042;-72
2023/04/17 21:17:12;;;;;;;14.82;4.63;;;;;;;20.01;51.17;97344.00;10391110;28;20099;-72
2023/04/17 21:22:31;;;;;;;14.20;5.57;;;;;;;20.01;51.43;97337.81;10376164;28;20046;-72
2023/04/17 21:27:51;;;;;;;13.82;4.88;;;;;;;19.99;52.03;97330.00;10375789;28;20486;-72
2023/04/17 21:33:10;;;;;;;13.80;4.25;;;;;;;20.00;52.07;97325.41;10390529;28;20046;-72
2023/04/17 21:38:30;;;;;;;12.30;4.00;;;;;;;19.98;52.16;97341.94;10361594;28;20053;-72
2023/04/17 21:43:49;;;;;;;8.98;3.50;;;;;;;19.97;52.03;97336.84;10375358;28;20111;-72
2023/04/17 21:49:09;;;;;;;9.90;3.67;;;;;;;19.96;52.15;97327.94;10389713;28;20041;-72
2023/04/17 21:54:29;;;;;;;10.30;4.45;;;;;;;19.95;52.05;97324.44;10373279;28;20054;-72
2023/04/17 21:59:48;;;;;;;10.73;3.83;;;;;;;19.94;51.99;97319.34;10389346;28;20042;-72
2023/04/17 22:05:08;;;;;;;6.78;3.50;;;;;;;19.92;51.79;97325.06;10373499;28;20046;-72
2023/04/17 22:10:28;;;;;;;8.38;3.53;;;;;;;19.92;51.52;97319.66;10374266;28;20401;-72
2023/04/17 22:15:48;;;;;;;9.65;3.70;;;;;;;19.91;51.62;97318.03;10373929;28;20045;-72
2023/04/17 22:47:27;;;;;;;7.07;3.53;;;;;;;19.86;51.25;97317.41;10387748;28;20545;-72
2023/04/17 22:52:46;;;;;;;6.03;3.30;;;;;;;19.84;51.04;97317.72;10372805;28;20050;-72
2023/04/17 22:58:05;;;;;;;7.20;3.42;;;;;;;19.84;51.01;97319.63;10335143;28;20055;-72
2023/04/17 23:03:24;;;;;;;8.30;3.38;;;;;;;19.82;51.20;97319.94;10332032;28;20483;-72
2023/04/17 23:08:44;;;;;;;5.80;2.88;;;;;;;19.81;50.95;97312.13;10331403;28;20051;-72
2023/04/17 23:14:03;;;;;;;6.40;3.17;;;;;;;19.80;51.03;97321.34;10345447;28;20089;-72
2023/04/17 23:19:22;;;;;;;5.30;3.17;;;;;;;19.78;51.03;97310.88;10330892;28;20062;-72
2023/04/17 23:24:42;;;;;;;6.22;3.10;;;;;;;19.78;50.93;97301.94;10331288;28;20045;-72
2023/04/17 23:30:02;;;;;;;5.90;3.30;;;;;;;19.77;50.63;97301.16;10345111;28;20049;-72
2023/04/17 23:35:22;;;;;;;6.55;3.30;;;;;;;19.75;50.83;97306.06;10344783;28;20046;-72
2023/04/17 23:40:41;;;;;;;7.93;3.25;;;;;;;19.75;50.87;97300.66;10345776;28;20046;-72
2023/04/17 23:46:01;;;;;;;6.90;3.10;;;;;;;19.74;50.71;97297.19;10345507;28;20042;-72
2023/04/17 23:51:20;;;;;;;5.93;3.13;;;;;;;19.73;50.80;97300.97;10345674;28;20096;-72
2023/04/17 23:56:42;;;;;;;5.68;2.90;;;;;;;19.72;50.57;97298.59;10358950;28;20065;-76
